Airport Name : Nurnberg

Other Name : Nurnberg

ICAO : EDDN

IATA : NUE

FAA :

Latitude : 49.4987

Longitude : 11.066897

Country : Germany

Local Date and Time : 16 Jan 2021 01:28

 

TAF (Terminal Aerodrome Forecast)

TAF EDDN 152300Z 1600/1624 31005KT 9999 SCT015 BKN035 TEMPO 1601/1613 4000 -SN

 

METAR (METeorological Aerodrome Report)

EDDN 160020Z 29005KT 9999 BKN035 M02/M05 Q1025 R28/490195

EDDN 152350Z 31005KT 9999 BKN035 M02/M04 Q1025 R28/490195

EDDN 152320Z 31005KT 9999 BKN035 M01/M04 Q1026 R28/490195

EDDN 152250Z 30005KT 9999 FEW018 BKN035 M01/M04 Q1026 R28/490195

EDDN 152220Z 31004KT 9999 -SN FEW018 BKN040 M01/M04 Q1025 R28/490195

EDDN 152150Z 31005KT 9999 -SN SCT018 BKN035 M01/M04 Q1025 R28/490195

EDDN 152120Z 30005KT 9999 -SN SCT018 BKN030 M01/M03 Q1025 R28/490195

EDDN 152050Z 29005KT 9999 -SN FEW018 BKN030 M01/M04 Q1025 R10/190095 NOSIG

To Charter a Jet Click here.